createdAt,value
2019-04-28T00:01:33.104Z,100.00
2019-04-28T00:04:03.438Z,100.00
2019-04-28T00:06:32.379Z,100.00
2019-04-28T00:09:01.743Z,100.00
2019-04-28T00:11:31.710Z,100.00
2019-04-28T00:14:01.894Z,100.00
2019-04-28T00:16:31.273Z,100.00
2019-04-28T00:19:01.090Z,100.00
2019-04-28T00:21:31.996Z,100.00
2019-04-28T00:24:18.736Z,100.00
2019-04-28T00:26:57.924Z,100.00
2019-04-28T00:29:38.589Z,100.00
2019-04-28T00:32:01.085Z,100.00
2019-04-28T00:34:31.109Z,100.00
2019-04-28T00:37:01.538Z,100.00
2019-04-28T00:39:31.057Z,100.00
2019-04-28T00:42:03.068Z,100.00
2019-04-28T00:44:31.409Z,100.00
2019-04-28T00:47:01.111Z,100.00
2019-04-28T00:49:48.060Z,100.00
2019-04-28T00:52:17.653Z,100.00
2019-04-28T00:54:47.144Z,100.00
2019-04-28T00:57:15.750Z,100.00
2019-04-28T00:59:53.975Z,100.00
2019-04-28T01:02:21.067Z,100.00
2019-04-28T01:04:51.551Z,100.00
2019-04-28T01:07:21.310Z,100.00
2019-04-28T01:09:51.639Z,100.00
2019-04-28T01:12:21.300Z,100.00
2019-04-28T01:14:52.275Z,100.00
2019-04-28T01:17:22.378Z,100.00
2019-04-28T01:20:04.501Z,100.00
2019-04-28T01:22:33.109Z,100.00
2019-04-28T01:25:01.802Z,100.00
2019-04-28T01:27:32.043Z,100.00
2019-04-28T01:30:07.926Z,100.00
2019-04-28T01:32:46.689Z,100.00
2019-04-28T01:35:15.729Z,100.00
2019-04-28T01:37:44.344Z,100.00
2019-04-28T01:40:14.521Z,100.00
2019-04-28T01:42:43.155Z,100.00
2019-04-28T01:45:11.827Z,100.00
2019-04-28T01:47:40.667Z,100.00
2019-04-28T01:50:10.195Z,100.00
2019-04-28T01:52:40.201Z,100.00
2019-04-28T01:55:10.236Z,100.00
2019-04-28T01:57:40.062Z,100.00
2019-04-28T02:00:22.267Z,100.00
2019-04-28T02:02:41.790Z,100.00
2019-04-28T02:05:11.423Z,100.00
2019-04-28T02:07:40.751Z,100.00
2019-04-28T02:10:10.287Z,100.00
2019-04-28T02:12:40.326Z,100.00
2019-04-28T02:15:10.432Z,100.00
2019-04-28T02:17:40.161Z,100.00
2019-04-28T02:20:10.408Z,100.00
2019-04-28T02:22:40.825Z,100.00
2019-04-28T02:25:09.944Z,100.00
2019-04-28T02:27:40.108Z,100.00
2019-04-28T02:30:11.519Z,100.00
2019-04-28T02:32:40.726Z,100.00
2019-04-28T02:35:10.684Z,100.00
2019-04-28T02:37:40.513Z,100.00
2019-04-28T02:40:10.569Z,100.00
2019-04-28T02:42:41.026Z,100.00
2019-04-28T02:45:11.651Z,100.00
2019-04-28T02:47:42.067Z,100.00
2019-04-28T02:50:15.173Z,100.00
2019-04-28T02:53:02.229Z,100.00
2019-04-28T02:55:32.222Z,100.00
2019-04-28T02:58:01.602Z,100.00
2019-04-28T03:00:31.963Z,100.00
2019-04-28T03:03:01.568Z,100.00
2019-04-28T03:05:33.515Z,100.00
2019-04-28T03:08:01.512Z,100.00
2019-04-28T03:10:31.307Z,100.00
2019-04-28T03:13:01.349Z,100.00
2019-04-28T03:15:30.592Z,100.00
2019-04-28T03:18:01.749Z,100.00
2019-04-28T03:20:30.739Z,100.00
2019-04-28T03:23:00.888Z,100.00
2019-04-28T03:25:50.486Z,100.00
2019-04-28T03:28:21.370Z,100.00
2019-04-28T03:31:06.393Z,100.00
2019-04-28T03:33:34.507Z,100.00
2019-04-28T03:36:07.496Z,100.00
2019-04-28T03:38:32.691Z,100.00
2019-04-28T03:41:01.299Z,100.00
2019-04-28T03:43:30.655Z,100.00
2019-04-28T03:46:10.513Z,100.00
2019-04-28T03:48:40.879Z,100.00
2019-04-28T03:51:10.792Z,100.00
2019-04-28T03:53:41.002Z,100.00
2019-04-28T03:56:11.384Z,100.00
2019-04-28T03:58:40.767Z,100.00
2019-04-28T04:01:10.790Z,100.00
2019-04-28T04:03:41.811Z,100.00
2019-04-28T04:06:10.604Z,100.00
2019-04-28T04:08:40.855Z,100.00
2019-04-28T04:11:14.000Z,100.00
2019-04-28T04:13:47.466Z,100.00
2019-04-28T04:16:20.516Z,100.00
2019-04-28T04:19:02.179Z,100.00
2019-04-28T04:21:31.236Z,100.00
2019-04-28T04:24:01.009Z,100.00
2019-04-28T04:26:32.765Z,100.00
2019-04-28T04:29:01.130Z,100.00
2019-04-28T04:31:31.760Z,100.00
2019-04-28T04:34:03.074Z,100.00
2019-04-28T04:36:31.143Z,100.00
2019-04-28T04:39:01.785Z,100.00
2019-04-28T04:41:30.730Z,100.00
2019-04-28T04:44:01.084Z,100.00
2019-04-28T04:46:31.368Z,100.00
2019-04-28T04:49:00.839Z,100.00
2019-04-28T04:51:30.622Z,100.00
2019-04-28T04:54:01.073Z,100.00
2019-04-28T04:56:30.388Z,100.00
2019-04-28T04:59:02.264Z,100.00
2019-04-28T05:01:50.278Z,100.00
2019-04-28T05:04:23.436Z,100.00
2019-04-28T05:06:52.070Z,100.00
2019-04-28T05:09:22.050Z,100.00
2019-04-28T05:11:53.538Z,100.00
2019-04-28T05:14:22.336Z,100.00
2019-04-28T05:16:51.095Z,100.00
2019-04-28T05:19:20.061Z,100.00
2019-04-28T05:21:49.861Z,100.00
2019-04-28T05:24:23.249Z,100.00
2019-04-28T05:26:51.877Z,100.00
2019-04-28T05:29:26.526Z,100.00
2019-04-28T05:31:54.917Z,100.00
2019-04-28T05:34:23.950Z,100.00
2019-04-28T05:36:51.971Z,100.00
2019-04-28T05:39:20.696Z,100.00
2019-04-28T05:41:50.485Z,100.00
2019-04-28T05:44:20.639Z,100.00
2019-04-28T05:46:50.609Z,100.00
2019-04-28T05:49:21.415Z,100.00
2019-04-28T05:51:51.773Z,100.00
2019-04-28T05:54:22.441Z,100.00
2019-04-28T05:56:59.693Z,100.00
2019-04-28T05:59:50.546Z,100.00
2019-04-28T06:02:23.937Z,100.00
2019-04-28T06:04:52.619Z,100.00
2019-04-28T06:07:41.072Z,100.00
2019-04-28T06:10:10.158Z,100.00
2019-04-28T06:12:40.733Z,100.00
2019-04-28T06:15:11.742Z,100.00
2019-04-28T06:17:40.117Z,100.00
2019-04-28T06:20:11.566Z,100.00
2019-04-28T06:22:39.544Z,100.00
2019-04-28T06:25:08.328Z,100.00
2019-04-28T06:27:36.993Z,100.00
2019-04-28T06:30:08.629Z,100.00
2019-04-28T06:32:37.313Z,100.00
2019-04-28T06:35:07.627Z,100.00
2019-04-28T06:37:36.661Z,100.00
2019-04-28T06:40:07.083Z,100.00
2019-04-28T06:42:39.810Z,100.00
2019-04-28T06:45:08.090Z,100.00
2019-04-28T06:47:36.783Z,100.00
2019-04-28T06:50:06.128Z,100.00
2019-04-28T06:52:34.848Z,100.00
2019-04-28T06:55:04.001Z,100.00
2019-04-28T06:57:32.681Z,100.00
2019-04-28T07:00:01.329Z,100.00
2019-04-28T07:02:30.048Z,100.00
2019-04-28T07:05:02.149Z,100.00
2019-04-28T07:07:29.215Z,96.20
2019-04-28T07:09:57.832Z,96.88
2019-04-28T07:12:26.563Z,95.59
2019-04-28T07:14:55.181Z,98.39
2019-04-28T07:17:23.806Z,96.08
2019-04-28T07:20:01.502Z,94.50
2019-04-28T07:22:31.864Z,88.95
2019-04-28T07:25:00.560Z,93.63
2019-04-28T07:27:29.231Z,89.81
2019-04-28T07:29:57.934Z,93.56
2019-04-28T07:32:26.748Z,90.84
2019-04-28T07:34:55.594Z,87.70
2019-04-28T07:37:24.290Z,88.38
2019-04-28T07:39:53.073Z,87.84
2019-04-28T07:42:23.781Z,91.70
2019-04-28T07:44:52.557Z,98.57
2019-04-28T07:47:21.210Z,97.92
2019-04-28T07:49:49.867Z,95.95
2019-04-28T07:52:23.076Z,89.12
2019-04-28T07:54:51.853Z,100.00
2019-04-28T07:57:20.776Z,97.23
2019-04-28T07:59:49.576Z,96.87
2019-04-28T08:02:18.245Z,99.77
2019-04-28T08:04:47.390Z,98.64
2019-04-28T08:07:16.019Z,85.00
2019-04-28T08:09:44.794Z,100.00
2019-04-28T08:12:13.583Z,100.00
2019-04-28T08:14:42.359Z,100.00
2019-04-28T08:17:11.043Z,100.00
2019-04-28T08:19:39.717Z,100.00
2019-04-28T08:22:08.410Z,100.00
2019-04-28T08:24:37.160Z,100.00
2019-04-28T08:27:05.941Z,100.00
2019-04-28T08:29:34.591Z,96.66
2019-04-28T08:32:07.827Z,92.28
2019-04-28T08:34:36.571Z,97.70
2019-04-28T08:37:05.290Z,100.00
2019-04-28T08:39:34.054Z,99.81
2019-04-28T08:42:04.072Z,100.00
2019-04-28T08:44:33.070Z,95.32
2019-04-28T08:47:01.808Z,93.08
2019-04-28T08:49:31.534Z,96.51
2019-04-28T08:52:00.241Z,92.99
2019-04-28T08:54:29.049Z,89.56
2019-04-28T08:56:59.872Z,90.43
2019-04-28T08:59:28.561Z,92.79
2019-04-28T09:01:57.367Z,89.26
2019-04-28T09:04:27.061Z,89.99
2019-04-28T09:06:55.961Z,92.65
2019-04-28T09:09:25.154Z,95.34
2019-04-28T09:11:53.854Z,97.32
2019-04-28T09:14:24.280Z,95.47
2019-04-28T09:16:53.080Z,93.72
2019-04-28T09:19:23.501Z,88.99
2019-04-28T09:21:52.481Z,92.88
2019-04-28T09:24:21.269Z,90.68
2019-04-28T09:26:51.456Z,95.66
2019-04-28T09:29:20.533Z,92.63
2019-04-28T09:31:49.948Z,91.86
2019-04-28T09:34:28.141Z,88.31
2019-04-28T09:36:49.715Z,83.89
2019-04-28T09:39:19.944Z,86.42
2019-04-28T09:41:50.936Z,84.79
2019-04-28T09:44:20.367Z,84.13
2019-04-28T09:46:50.821Z,88.80
2019-04-28T09:49:20.032Z,88.21
2019-04-28T09:51:48.914Z,85.46
2019-04-28T09:54:17.788Z,88.41
2019-04-28T09:56:56.540Z,87.13
2019-04-28T09:59:18.044Z,87.34
2019-04-28T10:01:46.732Z,87.63
2019-04-28T10:04:15.521Z,84.84
2019-04-28T10:06:44.515Z,84.56
2019-04-28T10:09:14.165Z,82.96
2019-04-28T10:11:43.132Z,81.83
2019-04-28T10:14:11.886Z,79.56
2019-04-28T10:16:40.999Z,78.43
2019-04-28T10:19:09.771Z,77.30
2019-04-28T10:21:38.574Z,77.02
2019-04-28T10:24:07.182Z,79.02
2019-04-28T10:26:35.879Z,78.08
2019-04-28T10:29:04.620Z,79.12
2019-04-28T10:31:33.307Z,77.53
2019-04-28T10:34:03.785Z,78.23
2019-04-28T10:36:36.965Z,79.30
2019-04-28T10:39:21.888Z,78.85
2019-04-28T10:41:50.676Z,80.11
2019-04-28T10:44:19.570Z,82.54
2019-04-28T10:46:48.895Z,84.22
2019-04-28T10:49:17.662Z,85.28
2019-04-28T10:51:58.534Z,86.37
2019-04-28T10:54:18.311Z,86.04
2019-04-28T10:56:47.096Z,85.51
2019-04-28T10:59:18.676Z,87.38
2019-04-28T11:01:47.757Z,87.84
2019-04-28T11:04:34.473Z,88.21
2019-04-28T11:07:03.664Z,88.79
2019-04-28T11:09:36.758Z,91.71
2019-04-28T11:12:06.967Z,95.54
2019-04-28T11:14:35.652Z,98.58
2019-04-28T11:17:04.362Z,100.00
2019-04-28T11:19:33.482Z,100.00
2019-04-28T11:22:02.537Z,100.00
2019-04-28T11:24:31.630Z,100.00
2019-04-28T11:27:00.418Z,100.00
2019-04-28T11:29:29.118Z,100.00
2019-04-28T11:31:58.101Z,100.00
2019-04-28T11:34:28.796Z,100.00
2019-04-28T11:36:59.061Z,100.00
2019-04-28T11:39:35.628Z,100.00
2019-04-28T11:42:04.331Z,100.00
2019-04-28T11:44:33.032Z,100.00
2019-04-28T11:47:01.793Z,100.00
2019-04-28T11:49:31.040Z,100.00
2019-04-28T11:51:59.773Z,100.00
2019-04-28T11:54:28.460Z,100.00
2019-04-28T11:56:57.365Z,100.00
2019-04-28T11:59:26.356Z,100.00
2019-04-28T12:01:55.291Z,100.00
2019-04-28T12:04:23.979Z,100.00
2019-04-28T12:06:52.714Z,100.00
2019-04-28T12:09:24.389Z,100.00
2019-04-28T12:11:54.696Z,100.00
2019-04-28T12:14:29.322Z,100.00
2019-04-28T12:17:14.803Z,100.00
2019-04-28T12:19:48.011Z,100.00
2019-04-28T12:22:16.698Z,100.00
2019-04-28T12:24:45.404Z,100.00
2019-04-28T12:27:14.089Z,100.00
2019-04-28T12:29:42.849Z,100.00
2019-04-28T12:32:12.047Z,100.00
2019-04-28T12:34:42.189Z,100.00
2019-04-28T12:37:11.304Z,100.00
2019-04-28T12:39:40.065Z,100.00
2019-04-28T12:42:11.083Z,100.00
2019-04-28T12:44:39.805Z,100.00
2019-04-28T12:47:08.809Z,100.00
2019-04-28T12:49:39.200Z,100.00
2019-04-28T12:52:09.829Z,100.00
2019-04-28T12:54:40.687Z,100.00
2019-04-28T12:57:11.086Z,100.00
2019-04-28T12:59:47.456Z,100.00
2019-04-28T13:02:20.446Z,100.00
2019-04-28T13:04:50.785Z,100.00
2019-04-28T13:07:19.555Z,100.00
2019-04-28T13:09:49.376Z,100.00
2019-04-28T13:12:19.926Z,100.00
2019-04-28T13:14:48.606Z,100.00
2019-04-28T13:17:17.811Z,100.00
2019-04-28T13:19:46.697Z,100.00
2019-04-28T13:22:18.027Z,100.00
2019-04-28T13:24:46.872Z,100.00
2019-04-28T13:27:15.894Z,100.00
2019-04-28T13:29:44.606Z,100.00
2019-04-28T13:32:13.494Z,100.00
2019-04-28T13:34:42.279Z,100.00
2019-04-28T13:37:10.965Z,100.00
2019-04-28T13:39:53.886Z,100.00
2019-04-28T13:42:22.841Z,100.00
2019-04-28T13:45:02.576Z,100.00
2019-04-28T13:47:31.612Z,100.00
2019-04-28T13:50:01.813Z,100.00
2019-04-28T13:52:30.521Z,100.00
2019-04-28T13:55:17.501Z,100.00
2019-04-28T13:57:46.224Z,100.00
2019-04-28T14:00:33.047Z,100.00
2019-04-28T14:03:07.379Z,100.00
2019-04-28T14:05:40.544Z,100.00
2019-04-28T14:08:09.647Z,100.00
2019-04-28T14:10:38.330Z,100.00
2019-04-28T14:13:07.855Z,100.00
2019-04-28T14:15:36.675Z,100.00
2019-04-28T14:18:05.437Z,100.00
2019-04-28T14:20:35.543Z,100.00
2019-04-28T14:23:07.451Z,100.00
2019-04-28T14:25:36.808Z,100.00
2019-04-28T14:28:05.543Z,100.00
2019-04-28T14:30:34.576Z,100.00
2019-04-28T14:33:03.258Z,100.00
2019-04-28T14:35:32.979Z,100.00
2019-04-28T14:38:01.881Z,100.00
2019-04-28T14:40:30.653Z,100.00
2019-04-28T14:43:03.234Z,100.00
2019-04-28T14:45:32.400Z,100.00
2019-04-28T14:50:50.698Z,100.00
2019-04-28T14:53:19.394Z,100.00
2019-04-28T14:55:48.235Z,100.00
2019-04-28T14:58:16.990Z,100.00
2019-04-28T15:00:50.431Z,100.00
2019-04-28T15:03:21.626Z,100.00
2019-04-28T15:06:02.588Z,100.00
2019-04-28T15:08:42.220Z,100.00
2019-04-28T15:11:30.840Z,100.00
2019-04-28T15:14:00.270Z,100.00
2019-04-28T15:16:29.098Z,100.00
2019-04-28T15:18:57.861Z,100.00
2019-04-28T15:21:26.508Z,100.00
2019-04-28T15:23:56.923Z,100.00
2019-04-28T15:26:25.861Z,100.00
2019-04-28T15:28:54.658Z,100.00
2019-04-28T15:31:23.688Z,100.00
2019-04-28T15:33:53.115Z,100.00
2019-04-28T15:36:22.255Z,100.00
2019-04-28T15:38:52.710Z,100.00
2019-04-28T15:41:22.290Z,100.00
2019-04-28T15:43:51.172Z,100.00
2019-04-28T15:46:24.261Z,100.00
2019-04-28T15:48:52.962Z,100.00
2019-04-28T15:51:24.402Z,100.00
2019-04-28T15:53:54.899Z,100.00
2019-04-28T15:56:34.880Z,100.00
2019-04-28T15:59:03.983Z,100.00
2019-04-28T16:01:34.340Z,100.00
2019-04-28T16:04:03.187Z,100.00
2019-04-28T16:06:35.115Z,100.00
2019-04-28T16:09:06.744Z,100.00
2019-04-28T16:11:35.390Z,100.00
2019-04-28T16:14:06.781Z,100.00
2019-04-28T16:16:36.046Z,100.00
2019-04-28T16:19:05.241Z,100.00
2019-04-28T16:21:33.928Z,100.00
2019-04-28T16:24:04.367Z,100.00
2019-04-28T16:26:36.134Z,100.00
2019-04-28T16:29:06.364Z,100.00
2019-04-28T16:31:36.883Z,100.00
2019-04-28T16:34:06.886Z,100.00
2019-04-28T16:36:35.669Z,100.00
2019-04-28T16:39:06.815Z,100.00
2019-04-28T16:41:41.353Z,100.00
2019-04-28T16:44:15.279Z,100.00
2019-04-28T16:46:44.069Z,100.00
2019-04-28T16:49:12.724Z,100.00
2019-04-28T16:51:41.412Z,100.00
2019-04-28T16:54:15.673Z,100.00
2019-04-28T16:56:47.700Z,100.00
2019-04-28T16:59:33.582Z,100.00
2019-04-28T17:02:06.982Z,100.00
2019-04-28T17:04:35.863Z,100.00
2019-04-28T17:07:04.899Z,100.00
2019-04-28T17:09:33.646Z,100.00
2019-04-28T17:12:04.708Z,100.00
2019-04-28T17:14:33.585Z,100.00
2019-04-28T17:17:03.723Z,100.00
2019-04-28T17:19:32.535Z,100.00
2019-04-28T17:22:02.841Z,100.00
2019-04-28T17:24:35.696Z,100.00
2019-04-28T17:27:04.605Z,100.00
2019-04-28T17:29:37.775Z,100.00
2019-04-28T17:32:05.453Z,100.00
2019-04-28T17:34:34.288Z,100.00
2019-04-28T17:37:04.910Z,100.00
2019-04-28T17:39:34.366Z,100.00
2019-04-28T17:42:03.364Z,100.00
2019-04-28T17:44:32.263Z,100.00
2019-04-28T17:47:05.560Z,100.00
2019-04-28T17:49:39.335Z,100.00
2019-04-28T17:52:08.589Z,100.00
2019-04-28T17:54:38.028Z,100.00
2019-04-28T17:57:08.902Z,100.00
2019-04-28T17:59:38.401Z,100.00
2019-04-28T18:02:25.526Z,100.00
2019-04-28T18:04:56.003Z,100.00
2019-04-28T18:07:26.446Z,100.00
2019-04-28T18:09:55.265Z,100.00
2019-04-28T18:12:24.071Z,100.00
2019-04-28T18:14:56.406Z,100.00
2019-04-28T18:17:28.522Z,100.00
2019-04-28T18:19:58.204Z,100.00
2019-04-28T18:22:28.534Z,100.00
2019-04-28T18:24:57.542Z,100.00
2019-04-28T18:27:26.315Z,100.00
2019-04-28T18:29:56.724Z,100.00
2019-04-28T18:32:43.676Z,100.00
2019-04-28T18:35:16.829Z,100.00
2019-04-28T18:38:04.911Z,100.00
2019-04-28T18:40:38.133Z,100.00
2019-04-28T18:43:08.635Z,100.00
2019-04-28T18:45:37.399Z,100.00
2019-04-28T18:48:06.361Z,100.00
2019-04-28T18:50:38.046Z,100.00
2019-04-28T18:53:07.143Z,100.00
2019-04-28T18:55:36.479Z,100.00
2019-04-28T18:58:08.978Z,100.00
2019-04-28T19:00:40.189Z,100.00
2019-04-28T19:03:10.769Z,100.00
2019-04-28T19:05:43.534Z,100.00
2019-04-28T19:08:22.922Z,100.00
2019-04-28T19:11:02.508Z,100.00
2019-04-28T19:13:36.704Z,100.00
2019-04-28T19:16:31.912Z,100.00
2019-04-28T19:19:02.742Z,100.00
2019-04-28T19:21:32.117Z,100.00
2019-04-28T19:24:01.064Z,100.00
2019-04-28T19:26:29.803Z,100.00
2019-04-28T19:28:59.709Z,100.00
2019-04-28T19:31:32.024Z,100.00
2019-04-28T19:34:01.807Z,100.00
2019-04-28T19:36:31.859Z,100.00
2019-04-28T19:39:03.569Z,100.00
2019-04-28T19:41:33.118Z,100.00
2019-04-28T19:44:02.220Z,100.00
2019-04-28T19:46:31.788Z,100.00
2019-04-28T19:49:00.492Z,100.00
2019-04-28T19:51:32.084Z,100.00
2019-04-28T19:54:00.224Z,100.00
2019-04-28T19:56:34.431Z,100.00
2019-04-28T19:59:04.732Z,100.00
2019-04-28T20:01:37.002Z,100.00
2019-04-28T20:04:05.822Z,100.00
2019-04-28T20:06:34.479Z,100.00
2019-04-28T20:09:04.809Z,100.00
2019-04-28T20:11:38.671Z,100.00
2019-04-28T20:14:07.105Z,100.00
2019-04-28T20:16:36.289Z,100.00
2019-04-28T20:19:05.073Z,100.00
2019-04-28T20:21:35.289Z,100.00
2019-04-28T20:24:03.984Z,100.00
2019-04-28T20:26:32.940Z,100.00
2019-04-28T20:29:01.675Z,100.00
2019-04-28T20:31:30.515Z,100.00
2019-04-28T20:33:59.364Z,100.00
2019-04-28T20:36:32.736Z,100.00
2019-04-28T20:39:07.987Z,100.00
2019-04-28T20:41:36.772Z,100.00
2019-04-28T20:44:05.461Z,100.00
2019-04-28T20:46:34.150Z,100.00
2019-04-28T20:49:02.940Z,100.00
2019-04-28T20:51:31.728Z,100.00
2019-04-28T20:54:00.740Z,100.00
2019-04-28T20:56:29.510Z,100.00
2019-04-28T20:58:58.197Z,100.00
2019-04-28T21:01:27.203Z,100.00
2019-04-28T21:03:56.007Z,100.00
2019-04-28T21:06:25.276Z,100.00
2019-04-28T21:08:54.306Z,100.00
2019-04-28T21:11:23.271Z,100.00
2019-04-28T21:13:51.953Z,100.00
2019-04-28T21:16:20.630Z,100.00
2019-04-28T21:18:49.325Z,100.00
2019-04-28T21:21:18.451Z,100.00
2019-04-28T21:23:47.206Z,100.00
2019-04-28T21:26:15.890Z,100.00
2019-04-28T21:28:44.681Z,100.00
2019-04-28T21:31:13.369Z,100.00
2019-04-28T21:33:42.155Z,100.00
2019-04-28T21:36:11.564Z,100.00
2019-04-28T21:38:40.420Z,100.00
2019-04-28T21:41:09.140Z,100.00
2019-04-28T21:43:48.800Z,100.00
2019-04-28T21:46:28.223Z,100.00
2019-04-28T21:48:58.458Z,100.00
2019-04-28T21:51:27.126Z,100.00
2019-04-28T21:53:56.264Z,100.00
2019-04-28T21:56:25.727Z,100.00
2019-04-28T21:58:54.410Z,100.00
2019-04-28T22:01:23.721Z,100.00
2019-04-28T22:03:52.441Z,100.00
2019-04-28T22:06:21.215Z,100.00
2019-04-28T22:08:49.894Z,100.00
2019-04-28T22:11:19.203Z,100.00
2019-04-28T22:13:47.803Z,100.00
2019-04-28T22:16:16.500Z,100.00
2019-04-28T22:18:45.232Z,100.00
2019-04-28T22:21:14.132Z,100.00
2019-04-28T22:23:53.674Z,100.00
2019-04-28T22:26:45.083Z,100.00
2019-04-28T22:29:14.822Z,100.00
2019-04-28T22:31:44.101Z,100.00
2019-04-28T22:34:14.341Z,100.00
2019-04-28T22:36:44.644Z,100.00
2019-04-28T22:39:13.743Z,100.00
2019-04-28T22:41:42.369Z,100.00
2019-04-28T22:44:11.423Z,100.00
2019-04-28T22:46:41.317Z,100.00
2019-04-28T22:49:10.434Z,100.00
2019-04-28T22:51:39.173Z,100.00
2019-04-28T22:54:09.649Z,100.00
2019-04-28T22:56:43.157Z,100.00
2019-04-28T22:59:16.563Z,100.00
2019-04-28T23:01:47.289Z,100.00
2019-04-28T23:04:23.853Z,100.00
2019-04-28T23:06:52.554Z,100.00
2019-04-28T23:09:21.635Z,100.00
2019-04-28T23:11:50.966Z,100.00
2019-04-28T23:14:19.887Z,100.00
2019-04-28T23:16:48.881Z,100.00
2019-04-28T23:19:19.145Z,100.00
2019-04-28T23:21:49.475Z,100.00
2019-04-28T23:24:18.364Z,100.00
2019-04-28T23:26:48.693Z,100.00
2019-04-28T23:29:17.372Z,100.00
2019-04-28T23:31:46.303Z,100.00
2019-04-28T23:34:15.261Z,100.00
2019-04-28T23:36:44.047Z,100.00
2019-04-28T23:39:12.735Z,100.00
2019-04-28T23:41:43.158Z,100.00
2019-04-28T23:44:11.853Z,100.00
2019-04-28T23:46:57.468Z,100.00
2019-04-28T23:49:27.550Z,100.00
2019-04-28T23:52:00.755Z,100.00
2019-04-28T23:54:29.385Z,100.00
2019-04-28T23:56:58.116Z,100.00
2019-04-28T23:59:26.800Z,100.00
